| time (UTC) | temp F | wind direction | speed MPH | gust MPH | rain 1hr in | rain 24hr in | rain mn in | humidity % | barometer mb |
| 20260508091545 | 29 | 0 | 0.0 | 0.0 | 0.00 | 0.00 | 0.00 | 90 | 1006.0 |
| 20260508090045 | 29 | 0 | 0.0 | 0.0 | 0.00 | 0.00 | 0.00 | 89 | 1006.0 |
| 20260508084546 | 29 | 0 | 0.0 | 0.0 | 0.00 | 0.00 | 0.00 | 89 | 1006.1 |
| 20260508083045 | 30 | 0 | 0.0 | 0.0 | 0.00 | 0.00 | 0.00 | 89 | 1006.3 |
| 20260508081543 | 31 | 0 | 0.0 | 0.0 | 0.00 | 0.00 | 0.00 | 89 | 1006.4 |
| 20260508080041 | 31 | 0 | 0.0 | 0.0 | 0.00 | 0.00 | 0.00 | 89 | 1006.6 |
| 20260508074545 | 31 | 0 | 0.0 | 0.0 | 0.00 | 0.00 | 0.00 | 90 | 1006.7 |
| 20260508073044 | 31 | 0 | 0.0 | 0.0 | 0.00 | 0.00 | 0.00 | 90 | 1006.8 |
| 20260508071545 | 31 | 0 | 0.0 | 0.0 | 0.00 | 0.00 | 0.00 | 90 | 1006.9 |
| 20260508070045 | 31 | 0 | 0.0 | 0.0 | 0.00 | 0.00 | 0.00 | 90 | 1007.1 |
| 20260508064602 | 30 | 0 | 0.0 | 0.0 | 0.00 | 0.00 | 0.00 | 90 | 1007.0 |
| 20260508063045 | 30 | 0 | 0.0 | 0.0 | 0.00 | 0.00 | 0.00 | 89 | 1007.2 |
| 20260508061554 | 30 | 0 | 0.0 | 0.0 | 0.00 | 0.00 | 0.00 | 89 | 1007.2 |
| 20260508060048 | 30 | 0 | 0.0 | 0.0 | 0.00 | 0.00 | 0.00 | 88 | 1007.3 |
| 20260508054610 | 30 | 0 | 0.0 | 0.0 | 0.00 | 0.00 | 0.00 | 88 | 1007.3 |
| 20260508053047 | 30 | 0 | 0.0 | 0.0 | 0.00 | 0.00 | 0.00 | 88 | 1007.5 |
| 20260508051546 | 30 | 0 | 0.0 | 0.0 | 0.00 | 0.00 | 0.00 | 88 | 1007.6 |
| 20260508050044 | 30 | 0 | 0.0 | 0.0 | 0.00 | 0.00 | 0.00 | 88 | 1007.5 |
| 20260508044541 | 30 | 0 | 0.0 | 0.0 | 0.00 | 0.00 | 0.00 | 87 | 1007.5 |
| 20260508043050 | 30 | 0 | 0.0 | 0.0 | 0.00 | 0.00 | 0.00 | 87 | 1007.5 |
| 20260508041546 | 31 | 0 | 0.0 | 0.0 | 0.00 | 0.00 | 0.00 | 86 | 1007.6 |
| 20260508040054 | 31 | 0 | 0.0 | 0.0 | 0.00 | 0.00 | 0.00 | 85 | 1007.5 |
| 20260508034548 | 32 | 0 | 0.0 | 0.0 | 0.00 | 0.00 | 0.00 | 84 | 1007.6 |
| 20260508033049 | 32 | 0 | 0.0 | 0.0 | 0.00 | 0.00 | 0.00 | 83 | 1007.8 |
| 20260508031552 | 33 | 0 | 0.0 | 0.0 | 0.00 | 0.00 | 0.00 | 82 | 1008.0 |
| 20260508030049 | 34 | 0 | 0.0 | 0.0 | 0.00 | 0.00 | 0.00 | 82 | 1008.1 |
| 20260508024543 | 35 | 0 | 0.0 | 0.0 | 0.00 | 0.00 | 0.00 | 81 | 1008.1 |
| 20260508023041 | 36 | 0 | 0.0 | 0.0 | 0.00 | 0.00 | 0.00 | 80 | 1008.1 |
| 20260508021546 | 37 | 0 | 0.0 | 0.0 | 0.00 | 0.00 | 0.00 | 78 | 1008.1 |
| 20260508020048 | 37 | 0 | 0.0 | 0.0 | 0.00 | 0.00 | 0.00 | 77 | 1008.1 |
| 20260508014545 | 38 | 0 | 0.0 | 2.0 | 0.00 | 0.00 | 0.00 | 77 | 1008.0 |
| 20260508013045 | 38 | 0 | 0.0 | 0.0 | 0.00 | 0.00 | 0.00 | 76 | 1007.9 |
| 20260508011551 | 39 | 0 | 0.0 | 0.0 | 0.00 | 0.00 | 0.00 | 74 | 1007.7 |
| 20260508010047 | 39 | 0 | 0.0 | 0.0 | 0.00 | 0.00 | 0.00 | 73 | 1007.8 |
| 20260508004545 | 40 | 296 | 0.0 | 3.0 | 0.00 | 0.00 | 0.00 | 71 | 1007.6 |
| 20260508003045 | 41 | 289 | 0.0 | 5.0 | 0.00 | 0.00 | 0.00 | 68 | 1007.4 |
| 20260508001544 | 41 | 355 | 1.0 | 7.0 | 0.00 | 0.00 | 0.00 | 68 | 1007.4 |
| 20260508000054 | 42 | 0 | 1.0 | 8.0 | 0.00 | 0.00 | 0.00 | 66 | 1007.6 |
| 20260507234548 | 42 | 0 | 2.0 | 8.0 | 0.00 | 0.00 | 0.00 | 66 | 1007.6 |
| 20260507233047 | 42 | 0 | 0.0 | 5.0 | 0.00 | 0.00 | 0.00 | 66 | 1007.3 |
| 20260507231548 | 42 | 67 | 3.0 | 12.0 | 0.00 | 0.00 | 0.00 | 64 | 1007.5 |
| 20260507230045 | 43 | 30 | 6.0 | 13.0 | 0.00 | 0.00 | 0.00 | 56 | 1007.5 |
| 20260507224541 | 44 | 291 | 8.0 | 28.0 | 0.00 | 0.00 | 0.00 | 58 | 1007.5 |
| 20260507223046 | 45 | 240 | 9.0 | 17.0 | 0.00 | 0.00 | 0.00 | 51 | 1007.0 |
| 20260507221549 | 46 | 273 | 10.0 | 15.0 | 0.00 | 0.00 | 0.00 | 50 | 1006.9 |
| 20260507220045 | 46 | 271 | 9.0 | 12.0 | 0.00 | 0.00 | 0.00 | 50 | 1006.7 |
| 20260507214547 | 46 | 250 | 8.0 | 16.0 | 0.00 | 0.00 | 0.00 | 49 | 1006.8 |
| 20260507213045 | 47 | 250 | 10.0 | 15.0 | 0.00 | 0.00 | 0.00 | 48 | 1006.8 |
| 20260507211556 | 46 | 221 | 6.0 | 13.0 | 0.00 | 0.00 | 0.00 | 52 | 1006.9 |
| 20260507210050 | 47 | 272 | 8.0 | 17.0 | 0.00 | 0.00 | 0.00 | 51 | 1007.1 |
| 20260507204546 | 47 | 290 | 6.0 | 14.0 | 0.00 | 0.00 | 0.00 | 46 | 1007.1 |
| 20260507203043 | 47 | 255 | 9.0 | 17.0 | 0.00 | 0.00 | 0.00 | 50 | 1007.3 |
| 20260507201542 | 47 | 254 | 3.0 | 9.0 | 0.00 | 0.00 | 0.00 | 44 | 1007.3 |
| 20260507200047 | 47 | 205 | 5.0 | 12.0 | 0.00 | 0.00 | 0.00 | 45 | 1007.6 |
| 20260507194546 | 46 | 265 | 9.0 | 16.0 | 0.00 | 0.00 | 0.00 | 52 | 1007.8 |
| 20260507193054 | 46 | 284 | 9.0 | 15.0 | 0.00 | 0.00 | 0.00 | 47 | 1007.9 |
| 20260507191544 | 46 | 303 | 9.0 | 14.0 | 0.00 | 0.00 | 0.00 | 47 | 1007.9 |
| 20260507190042 | 47 | 310 | 10.0 | 15.0 | 0.00 | 0.00 | 0.00 | 48 | 1007.8 |
| 20260507184549 | 45 | 263 | 10.0 | 16.0 | 0.00 | 0.00 | 0.00 | 48 | 1007.9 |
| 20260507183046 | 46 | 261 | 10.0 | 17.0 | 0.00 | 0.00 | 0.00 | 48 | 1008.0 |
| 20260507181545 | 45 | 309 | 8.0 | 17.0 | 0.00 | 0.00 | 0.00 | 45 | 1008.0 |
| 20260507180044 | 45 | 276 | 10.0 | 16.0 | 0.00 | 0.00 | 0.00 | 51 | 1008.2 |
| 20260507174602 | 44 | 338 | 4.0 | 9.0 | 0.00 | 0.00 | 0.00 | 51 | 1008.3 |
| 20260507173046 | 44 | 269 | 5.0 | 19.0 | 0.00 | 0.00 | 0.00 | 51 | 1008.5 |
| 20260507171600 | 43 | 25 | 5.0 | 10.0 | 0.00 | 0.00 | 0.00 | 48 | 1008.4 |
| 20260507170046 | 43 | 317 | 10.0 | 15.0 | 0.00 | 0.00 | 0.00 | 53 | 1008.8 |
| 20260507164551 | 43 | 267 | 12.0 | 18.0 | 0.00 | 0.00 | 0.00 | 56 | 1008.8 |
| 20260507163044 | 44 | 252 | 7.0 | 14.0 | 0.00 | 0.00 | 0.00 | 50 | 1008.9 |
| 20260507161547 | 44 | 266 | 8.0 | 14.0 | 0.00 | 0.00 | 0.00 | 51 | 1008.9 |
| 20260507160111 | 44 | 287 | 10.0 | 20.0 | 0.00 | 0.00 | 0.00 | 49 | 1009.1 |
| 20260507154546 | 42 | 294 | 8.0 | 12.0 | 0.00 | 0.00 | 0.00 | 53 | 1009.2 |
| 20260507153041 | 44 | 302 | 9.0 | 14.0 | 0.00 | 0.00 | 0.00 | 57 | 1009.2 |
| 20260507151553 | 42 | 248 | 9.0 | 14.0 | 0.00 | 0.00 | 0.00 | 57 | 1009.2 |
| 20260507150047 | 42 | 315 | 4.0 | 15.0 | 0.00 | 0.00 | 0.00 | 55 | 1009.3 |
| 20260507144545 | 42 | 277 | 10.0 | 16.0 | 0.00 | 0.00 | 0.00 | 59 | 1009.4 |
| 20260507143044 | 40 | 281 | 10.0 | 20.0 | 0.00 | 0.00 | 0.00 | 66 | 1009.4 |
| 20260507141542 | 40 | 287 | 7.0 | 12.0 | 0.00 | 0.00 | 0.00 | 68 | 1009.4 |
| 20260507140047 | 39 | 243 | 2.0 | 12.0 | 0.00 | 0.00 | 0.00 | 72 | 1009.6 |
| 20260507134546 | 37 | 265 | 5.0 | 12.0 | 0.00 | 0.00 | 0.00 | 77 | 1009.7 |
| 20260507133046 | 36 | 262 | 7.0 | 11.0 | 0.00 | 0.00 | 0.00 | 78 | 1009.7 |
| 20260507131610 | 36 | 271 | 7.0 | 11.0 | 0.00 | 0.00 | 0.00 | 79 | 1009.7 |
| 20260507130043 | 36 | 257 | 7.0 | 10.0 | 0.00 | 0.00 | 0.00 | 77 | 1009.9 |
| 20260507124552 | 35 | 275 | 6.0 | 10.0 | 0.00 | 0.00 | 0.00 | 77 | 1009.7 |
| 20260507123047 | 35 | 292 | 6.0 | 14.0 | 0.00 | 0.00 | 0.00 | 77 | 1009.8 |
| 20260507121545 | 36 | 297 | 5.0 | 9.0 | 0.00 | 0.00 | 0.00 | 75 | 1009.8 |
| 20260507120045 | 36 | 288 | 5.0 | 9.0 | 0.00 | 0.00 | 0.00 | 74 | 1009.8 |
| 20260507114541 | 35 | 288 | 4.0 | 7.0 | 0.00 | 0.00 | 0.00 | 75 | 1009.8 |
| 20260507113107 | 35 | 264 | 5.0 | 8.0 | 0.00 | 0.00 | 0.00 | 74 | 1009.6 |
| 20260507111546 | 35 | 265 | 4.0 | 8.0 | 0.00 | 0.00 | 0.00 | 75 | 1009.5 |
| 20260507110045 | 35 | 259 | 4.0 | 9.0 | 0.00 | 0.00 | 0.00 | 76 | 1009.6 |
| 20260507104557 | 35 | 275 | 5.0 | 9.0 | 0.00 | 0.00 | 0.00 | 75 | 1009.5 |
| 20260507103044 | 35 | 263 | 5.0 | 8.0 | 0.00 | 0.00 | 0.00 | 76 | 1009.5 |
| 20260507101552 | 35 | 257 | 4.0 | 7.0 | 0.00 | 0.00 | 0.00 | 74 | 1009.4 |
| 20260507100056 | 35 | 276 | 3.0 | 7.0 | 0.00 | 0.00 | 0.00 | 74 | 1009.4 |
| 20260507094550 | 35 | 269 | 3.0 | 7.0 | 0.00 | 0.00 | 0.00 | 74 | 1009.4 |
| 20260507093045 | 35 | 271 | 3.0 | 7.0 | 0.00 | 0.00 | 0.00 | 73 | 1009.4 |